Terminal Aerodrome Forecast
Issued by NWS Blacksburg, VA

Current Version | Previous Version | Graphics & Text | Print | Product List | Glossary On
Versions: 1 2 3 4 5 6 7 8 9 10 11 12 13 14 15 16 17 18 19 20
000
FTUS41 KRNK 131130
TAFBLF
TAF
KBLF 131130Z 1312/1412 20007KT P6SM BKN120
     FM131400 22010KT P6SM SCT040
     FM131700 22013G23KT P6SM SCT050
     FM140100 19012KT P6SM BKN150
     FM140900 20012KT P6SM OVC050=

USA.gov is the U.S. government's official web portal to all federal, state and local government web resources and services.